sensor_id;sensor_type;location;lat;lon;timestamp;temperature;humidity
15103;DHT22;7652;53.584;9.998;2023-10-19T00:02:55;9.30;99.90
15103;DHT22;7652;53.584;9.998;2023-10-19T00:06:16;9.30;99.90
15103;DHT22;7652;53.584;9.998;2023-10-19T00:09:38;9.20;99.90
15103;DHT22;7652;53.584;9.998;2023-10-19T00:13:01;9.20;99.90
15103;DHT22;7652;53.584;9.998;2023-10-19T00:16:24;9.20;99.90
15103;DHT22;7652;53.584;9.998;2023-10-19T00:19:49;9.30;99.90
15103;DHT22;7652;53.584;9.998;2023-10-19T00:23:29;9.30;99.90
15103;DHT22;7652;53.584;9.998;2023-10-19T00:26:53;9.40;99.90
15103;DHT22;7652;53.584;9.998;2023-10-19T00:30:16;9.40;99.90
15103;DHT22;7652;53.584;9.998;2023-10-19T00:33:43;9.30;99.90
15103;DHT22;7652;53.584;9.998;2023-10-19T00:37:06;9.30;99.90
15103;DHT22;7652;53.584;9.998;2023-10-19T00:40:30;9.30;99.90
15103;DHT22;7652;53.584;9.998;2023-10-19T00:43:57;9.30;99.90
15103;DHT22;7652;53.584;9.998;2023-10-19T00:47:24;9.30;99.90
15103;DHT22;7652;53.584;9.998;2023-10-19T00:50:50;9.30;99.90
15103;DHT22;7652;53.584;9.998;2023-10-19T00:54:27;9.30;99.90
15103;DHT22;7652;53.584;9.998;2023-10-19T00:57:53;9.30;99.90
15103;DHT22;7652;53.584;9.998;2023-10-19T01:01:20;9.40;99.90
15103;DHT22;7652;53.584;9.998;2023-10-19T01:04:47;9.40;99.90
15103;DHT22;7652;53.584;9.998;2023-10-19T01:08:16;9.40;99.90
15103;DHT22;7652;53.584;9.998;2023-10-19T01:11:44;9.40;99.90
15103;DHT22;7652;53.584;9.998;2023-10-19T01:15:11;9.30;99.90
15103;DHT22;7652;53.584;9.998;2023-10-19T01:18:36;9.40;99.90
15103;DHT22;7652;53.584;9.998;2023-10-19T01:22:02;9.30;99.90
15103;DHT22;7652;53.584;9.998;2023-10-19T01:25:26;9.20;99.90
15103;DHT22;7652;53.584;9.998;2023-10-19T01:28:55;9.30;99.90
15103;DHT22;7652;53.584;9.998;2023-10-19T01:32:21;9.30;99.90
15103;DHT22;7652;53.584;9.998;2023-10-19T01:35:43;9.30;99.90
15103;DHT22;7652;53.584;9.998;2023-10-19T01:39:22;9.40;99.90
15103;DHT22;7652;53.584;9.998;2023-10-19T01:42:47;9.40;99.90
15103;DHT22;7652;53.584;9.998;2023-10-19T01:46:10;9.40;99.90
15103;DHT22;7652;53.584;9.998;2023-10-19T01:49:42;9.40;99.90
15103;DHT22;7652;53.584;9.998;2023-10-19T01:53:12;9.30;99.90
15103;DHT22;7652;53.584;9.998;2023-10-19T01:56:36;9.40;99.90
15103;DHT22;7652;53.584;9.998;2023-10-19T02:00:00;9.40;99.90
15103;DHT22;7652;53.584;9.998;2023-10-19T02:03:31;9.50;99.90
15103;DHT22;7652;53.584;9.998;2023-10-19T02:06:53;9.40;99.90
15103;DHT22;7652;53.584;9.998;2023-10-19T02:10:15;9.30;99.90
15103;DHT22;7652;53.584;9.998;2023-10-19T02:13:37;9.40;99.90
15103;DHT22;7652;53.584;9.998;2023-10-19T02:17:01;9.40;99.90
15103;DHT22;7652;53.584;9.998;2023-10-19T02:20:25;9.40;99.90
15103;DHT22;7652;53.584;9.998;2023-10-19T02:24:00;9.50;99.90
15103;DHT22;7652;53.584;9.998;2023-10-19T02:27:21;9.50;99.90
15103;DHT22;7652;53.584;9.998;2023-10-19T02:30:52;9.40;99.90
15103;DHT22;7652;53.584;9.998;2023-10-19T02:34:14;9.50;99.90
15103;DHT22;7652;53.584;9.998;2023-10-19T02:37:36;9.50;99.90
15103;DHT22;7652;53.584;9.998;2023-10-19T02:40:58;9.50;99.90
15103;DHT22;7652;53.584;9.998;2023-10-19T02:44:21;9.50;99.90
15103;DHT22;7652;53.584;9.998;2023-10-19T02:47:44;9.60;99.90
15103;DHT22;7652;53.584;9.998;2023-10-19T02:51:07;9.50;99.90
15103;DHT22;7652;53.584;9.998;2023-10-19T02:54:31;9.50;99.90
15103;DHT22;7652;53.584;9.998;2023-10-19T02:57:54;9.50;99.90
15103;DHT22;7652;53.584;9.998;2023-10-19T03:01:20;9.50;99.90
15103;DHT22;7652;53.584;9.998;2023-10-19T03:04:45;9.60;99.90
15103;DHT22;7652;53.584;9.998;2023-10-19T03:08:08;9.50;99.90
15103;DHT22;7652;53.584;9.998;2023-10-19T03:11:30;9.60;99.90
15103;DHT22;7652;53.584;9.998;2023-10-19T03:14:53;9.50;99.90
15103;DHT22;7652;53.584;9.998;2023-10-19T03:18:14;9.50;99.90
15103;DHT22;7652;53.584;9.998;2023-10-19T03:21:36;9.50;99.90
15103;DHT22;7652;53.584;9.998;2023-10-19T03:25:06;9.50;99.90
15103;DHT22;7652;53.584;9.998;2023-10-19T03:28:56;9.60;99.90
15103;DHT22;7652;53.584;9.998;2023-10-19T03:32:20;9.60;99.90
15103;DHT22;7652;53.584;9.998;2023-10-19T03:35:47;9.60;99.90
15103;DHT22;7652;53.584;9.998;2023-10-19T03:39:08;9.60;99.90
15103;DHT22;7652;53.584;9.998;2023-10-19T03:42:34;9.50;99.90
15103;DHT22;7652;53.584;9.998;2023-10-19T03:46:02;9.30;99.90
15103;DHT22;7652;53.584;9.998;2023-10-19T03:49:35;9.20;99.90
15103;DHT22;7652;53.584;9.998;2023-10-19T03:52:59;9.00;99.90
15103;DHT22;7652;53.584;9.998;2023-10-19T03:56:20;8.90;99.90
15103;DHT22;7652;53.584;9.998;2023-10-19T03:59:44;8.70;99.90
15103;DHT22;7652;53.584;9.998;2023-10-19T04:03:05;8.70;99.90
15103;DHT22;7652;53.584;9.998;2023-10-19T04:06:27;8.60;99.90
15103;DHT22;7652;53.584;9.998;2023-10-19T04:09:49;8.50;99.90
15103;DHT22;7652;53.584;9.998;2023-10-19T04:13:30;8.50;99.90
15103;DHT22;7652;53.584;9.998;2023-10-19T04:16:53;8.40;99.90
15103;DHT22;7652;53.584;9.998;2023-10-19T04:20:17;8.30;99.90
15103;DHT22;7652;53.584;9.998;2023-10-19T04:23:50;8.30;99.90
15103;DHT22;7652;53.584;9.998;2023-10-19T04:27:11;8.20;99.90
15103;DHT22;7652;53.584;9.998;2023-10-19T04:30:33;8.20;99.90
15103;DHT22;7652;53.584;9.998;2023-10-19T04:33:58;8.20;99.90
15103;DHT22;7652;53.584;9.998;2023-10-19T04:37:30;8.10;99.90
15103;DHT22;7652;53.584;9.998;2023-10-19T04:40:51;8.00;99.90
15103;DHT22;7652;53.584;9.998;2023-10-19T04:44:13;7.90;99.90
15103;DHT22;7652;53.584;9.998;2023-10-19T04:47:36;7.90;99.90
15103;DHT22;7652;53.584;9.998;2023-10-19T04:50:59;7.90;99.90
15103;DHT22;7652;53.584;9.998;2023-10-19T04:54:21;7.90;99.90
15103;DHT22;7652;53.584;9.998;2023-10-19T04:57:43;7.90;99.90
15103;DHT22;7652;53.584;9.998;2023-10-19T05:01:04;7.80;99.90
15103;DHT22;7652;53.584;9.998;2023-10-19T05:04:26;7.70;99.90
15103;DHT22;7652;53.584;9.998;2023-10-19T05:07:49;7.70;99.90
15103;DHT22;7652;53.584;9.998;2023-10-19T05:11:11;7.70;99.90
15103;DHT22;7652;53.584;9.998;2023-10-19T05:14:32;7.70;99.90
15103;DHT22;7652;53.584;9.998;2023-10-19T05:17:54;7.80;99.90
15103;DHT22;7652;53.584;9.998;2023-10-19T05:21:16;7.80;99.90
15103;DHT22;7652;53.584;9.998;2023-10-19T05:24:38;7.80;99.90
15103;DHT22;7652;53.584;9.998;2023-10-19T05:28:00;7.80;99.90
15103;DHT22;7652;53.584;9.998;2023-10-19T05:31:22;7.80;99.90
15103;DHT22;7652;53.584;9.998;2023-10-19T05:34:43;7.90;99.90
15103;DHT22;7652;53.584;9.998;2023-10-19T05:38:05;8.00;99.90
15103;DHT22;7652;53.584;9.998;2023-10-19T05:41:27;7.90;99.90
15103;DHT22;7652;53.584;9.998;2023-10-19T05:44:51;8.00;99.90
15103;DHT22;7652;53.584;9.998;2023-10-19T05:48:13;7.90;99.90
15103;DHT22;7652;53.584;9.998;2023-10-19T05:51:36;7.90;99.90
15103;DHT22;7652;53.584;9.998;2023-10-19T05:54:58;7.90;99.90
15103;DHT22;7652;53.584;9.998;2023-10-19T05:58:21;7.90;99.90
15103;DHT22;7652;53.584;9.998;2023-10-19T06:01:43;7.90;99.90
15103;DHT22;7652;53.584;9.998;2023-10-19T06:05:07;8.00;99.90
15103;DHT22;7652;53.584;9.998;2023-10-19T06:08:29;8.00;99.90
15103;DHT22;7652;53.584;9.998;2023-10-19T06:11:51;7.90;99.90
15103;DHT22;7652;53.584;9.998;2023-10-19T06:15:16;7.90;99.90
15103;DHT22;7652;53.584;9.998;2023-10-19T06:18:38;7.90;99.90
15103;DHT22;7652;53.584;9.998;2023-10-19T06:22:00;7.90;99.90
15103;DHT22;7652;53.584;9.998;2023-10-19T06:25:24;8.00;99.90
15103;DHT22;7652;53.584;9.998;2023-10-19T06:28:45;7.90;99.90
15103;DHT22;7652;53.584;9.998;2023-10-19T06:32:08;8.00;99.90
15103;DHT22;7652;53.584;9.998;2023-10-19T06:35:31;7.90;99.90
15103;DHT22;7652;53.584;9.998;2023-10-19T06:38:53;8.00;99.90
15103;DHT22;7652;53.584;9.998;2023-10-19T06:42:14;7.90;99.90
15103;DHT22;7652;53.584;9.998;2023-10-19T06:45:37;8.10;99.90
15103;DHT22;7652;53.584;9.998;2023-10-19T06:49:01;8.10;99.90
15103;DHT22;7652;53.584;9.998;2023-10-19T06:52:22;8.00;99.90
15103;DHT22;7652;53.584;9.998;2023-10-19T06:55:44;8.00;99.90
15103;DHT22;7652;53.584;9.998;2023-10-19T06:59:06;8.10;99.90
15103;DHT22;7652;53.584;9.998;2023-10-19T07:02:27;8.10;99.90
15103;DHT22;7652;53.584;9.998;2023-10-19T07:05:51;8.00;99.90
15103;DHT22;7652;53.584;9.998;2023-10-19T07:09:13;8.10;99.90
15103;DHT22;7652;53.584;9.998;2023-10-19T07:12:36;8.10;99.90
15103;DHT22;7652;53.584;9.998;2023-10-19T07:15:58;8.10;99.90
15103;DHT22;7652;53.584;9.998;2023-10-19T07:19:19;8.10;99.90
15103;DHT22;7652;53.584;9.998;2023-10-19T07:22:43;8.10;99.90
15103;DHT22;7652;53.584;9.998;2023-10-19T07:26:06;8.10;99.90
15103;DHT22;7652;53.584;9.998;2023-10-19T07:29:27;8.10;99.90
15103;DHT22;7652;53.584;9.998;2023-10-19T07:32:51;8.20;99.90
15103;DHT22;7652;53.584;9.998;2023-10-19T07:36:14;8.20;99.90
15103;DHT22;7652;53.584;9.998;2023-10-19T07:39:38;8.30;99.90
15103;DHT22;7652;53.584;9.998;2023-10-19T07:43:03;8.30;99.90
15103;DHT22;7652;53.584;9.998;2023-10-19T07:46:25;8.40;99.90
15103;DHT22;7652;53.584;9.998;2023-10-19T07:49:46;8.30;99.90
15103;DHT22;7652;53.584;9.998;2023-10-19T07:53:12;8.30;99.90
15103;DHT22;7652;53.584;9.998;2023-10-19T07:56:34;8.30;99.90
15103;DHT22;7652;53.584;9.998;2023-10-19T07:59:57;8.30;99.90
15103;DHT22;7652;53.584;9.998;2023-10-19T08:03:18;8.40;99.90
15103;DHT22;7652;53.584;9.998;2023-10-19T08:06:42;8.40;99.90
15103;DHT22;7652;53.584;9.998;2023-10-19T08:10:05;8.50;99.90
15103;DHT22;7652;53.584;9.998;2023-10-19T08:13:30;8.40;99.90
15103;DHT22;7652;53.584;9.998;2023-10-19T08:16:53;8.40;99.90
15103;DHT22;7652;53.584;9.998;2023-10-19T08:20:17;8.30;99.90
15103;DHT22;7652;53.584;9.998;2023-10-19T08:23:43;8.30;99.90
15103;DHT22;7652;53.584;9.998;2023-10-19T08:27:05;8.40;99.90
15103;DHT22;7652;53.584;9.998;2023-10-19T08:30:28;8.30;99.90
15103;DHT22;7652;53.584;9.998;2023-10-19T08:33:50;8.20;99.90
15103;DHT22;7652;53.584;9.998;2023-10-19T08:37:12;8.30;99.90
15103;DHT22;7652;53.584;9.998;2023-10-19T08:40:34;8.30;99.90
15103;DHT22;7652;53.584;9.998;2023-10-19T08:43:55;8.30;99.90
15103;DHT22;7652;53.584;9.998;2023-10-19T08:47:18;8.30;99.90
15103;DHT22;7652;53.584;9.998;2023-10-19T08:50:41;8.20;99.90
15103;DHT22;7652;53.584;9.998;2023-10-19T08:54:05;8.30;99.90
15103;DHT22;7652;53.584;9.998;2023-10-19T08:57:27;8.40;99.90
15103;DHT22;7652;53.584;9.998;2023-10-19T09:00:50;8.40;99.90
15103;DHT22;7652;53.584;9.998;2023-10-19T09:04:16;8.40;99.90
15103;DHT22;7652;53.584;9.998;2023-10-19T09:07:37;8.40;99.90
15103;DHT22;7652;53.584;9.998;2023-10-19T09:11:05;8.40;99.90
15103;DHT22;7652;53.584;9.998;2023-10-19T09:14:32;8.40;99.90
15103;DHT22;7652;53.584;9.998;2023-10-19T09:17:54;8.30;99.90
15103;DHT22;7652;53.584;9.998;2023-10-19T09:21:18;8.40;99.90
15103;DHT22;7652;53.584;9.998;2023-10-19T09:24:45;8.40;99.90
15103;DHT22;7652;53.584;9.998;2023-10-19T09:28:07;8.40;99.90
15103;DHT22;7652;53.584;9.998;2023-10-19T09:31:31;8.50;99.90
15103;DHT22;7652;53.584;9.998;2023-10-19T09:34:53;8.50;99.90
15103;DHT22;7652;53.584;9.998;2023-10-19T09:38:18;8.50;99.90
15103;DHT22;7652;53.584;9.998;2023-10-19T09:41:42;8.50;99.90
15103;DHT22;7652;53.584;9.998;2023-10-19T09:45:06;8.40;99.90
15103;DHT22;7652;53.584;9.998;2023-10-19T09:48:28;8.50;99.90
15103;DHT22;7652;53.584;9.998;2023-10-19T09:51:50;8.50;99.90
15103;DHT22;7652;53.584;9.998;2023-10-19T09:55:34;8.50;99.90
15103;DHT22;7652;53.584;9.998;2023-10-19T09:59:05;8.50;99.90
15103;DHT22;7652;53.584;9.998;2023-10-19T10:02:27;8.60;99.90
15103;DHT22;7652;53.584;9.998;2023-10-19T10:05:49;8.60;99.90
15103;DHT22;7652;53.584;9.998;2023-10-19T10:09:11;8.50;99.90
15103;DHT22;7652;53.584;9.998;2023-10-19T10:12:35;8.50;99.90
15103;DHT22;7652;53.584;9.998;2023-10-19T10:15:58;8.60;99.90
15103;DHT22;7652;53.584;9.998;2023-10-19T10:19:20;8.50;99.90
15103;DHT22;7652;53.584;9.998;2023-10-19T10:22:42;8.50;99.90
15103;DHT22;7652;53.584;9.998;2023-10-19T10:26:04;8.50;99.90
15103;DHT22;7652;53.584;9.998;2023-10-19T10:29:30;8.50;99.90
15103;DHT22;7652;53.584;9.998;2023-10-19T10:32:53;8.50;99.90
15103;DHT22;7652;53.584;9.998;2023-10-19T10:36:17;8.50;99.90
15103;DHT22;7652;53.584;9.998;2023-10-19T10:39:40;8.60;99.90
15103;DHT22;7652;53.584;9.998;2023-10-19T10:43:05;8.50;99.90
15103;DHT22;7652;53.584;9.998;2023-10-19T10:46:28;8.60;99.90
15103;DHT22;7652;53.584;9.998;2023-10-19T10:49:52;8.60;99.90
15103;DHT22;7652;53.584;9.998;2023-10-19T10:53:14;8.60;99.90
15103;DHT22;7652;53.584;9.998;2023-10-19T10:56:40;8.50;99.90
15103;DHT22;7652;53.584;9.998;2023-10-19T11:00:06;8.50;99.90
15103;DHT22;7652;53.584;9.998;2023-10-19T11:03:30;8.50;99.90
15103;DHT22;7652;53.584;9.998;2023-10-19T11:06:53;8.40;99.90
15103;DHT22;7652;53.584;9.998;2023-10-19T11:10:26;8.50;99.90
15103;DHT22;7652;53.584;9.998;2023-10-19T11:13:49;8.40;99.90
15103;DHT22;7652;53.584;9.998;2023-10-19T11:17:13;8.40;99.90
15103;DHT22;7652;53.584;9.998;2023-10-19T11:20:37;8.50;99.90
15103;DHT22;7652;53.584;9.998;2023-10-19T11:23:58;8.40;99.90
15103;DHT22;7652;53.584;9.998;2023-10-19T11:27:24;8.40;99.90
15103;DHT22;7652;53.584;9.998;2023-10-19T11:30:47;8.50;99.90
15103;DHT22;7652;53.584;9.998;2023-10-19T11:34:09;8.50;99.90
15103;DHT22;7652;53.584;9.998;2023-10-19T11:37:46;8.50;99.90
15103;DHT22;7652;53.584;9.998;2023-10-19T11:41:08;8.60;99.90
15103;DHT22;7652;53.584;9.998;2023-10-19T11:44:30;8.60;99.90
15103;DHT22;7652;53.584;9.998;2023-10-19T11:47:52;8.60;99.90
15103;DHT22;7652;53.584;9.998;2023-10-19T11:51:15;8.60;99.90
15103;DHT22;7652;53.584;9.998;2023-10-19T11:54:38;8.60;99.90
15103;DHT22;7652;53.584;9.998;2023-10-19T11:58:00;8.60;99.90
15103;DHT22;7652;53.584;9.998;2023-10-19T12:01:21;8.50;99.90
15103;DHT22;7652;53.584;9.998;2023-10-19T12:04:43;8.50;99.90
15103;DHT22;7652;53.584;9.998;2023-10-19T12:08:05;8.50;99.90
15103;DHT22;7652;53.584;9.998;2023-10-19T12:11:29;8.60;99.90
15103;DHT22;7652;53.584;9.998;2023-10-19T12:14:50;8.50;99.90
15103;DHT22;7652;53.584;9.998;2023-10-19T12:18:14;8.60;99.90
15103;DHT22;7652;53.584;9.998;2023-10-19T12:21:36;8.60;99.90
15103;DHT22;7652;53.584;9.998;2023-10-19T12:25:03;8.70;99.90
15103;DHT22;7652;53.584;9.998;2023-10-19T12:28:27;8.60;99.90
15103;DHT22;7652;53.584;9.998;2023-10-19T12:31:48;8.70;99.90
15103;DHT22;7652;53.584;9.998;2023-10-19T12:35:10;8.80;99.90
15103;DHT22;7652;53.584;9.998;2023-10-19T12:38:32;8.70;99.90
15103;DHT22;7652;53.584;9.998;2023-10-19T12:41:54;8.80;99.90
15103;DHT22;7652;53.584;9.998;2023-10-19T12:45:18;8.90;99.90
15103;DHT22;7652;53.584;9.998;2023-10-19T12:48:40;8.80;99.90
15103;DHT22;7652;53.584;9.998;2023-10-19T12:52:01;8.90;99.90
15103;DHT22;7652;53.584;9.998;2023-10-19T12:55:24;9.00;99.90
15103;DHT22;7652;53.584;9.998;2023-10-19T12:58:47;9.00;99.90
15103;DHT22;7652;53.584;9.998;2023-10-19T13:02:11;9.10;99.90
15103;DHT22;7652;53.584;9.998;2023-10-19T13:05:36;9.10;99.90
15103;DHT22;7652;53.584;9.998;2023-10-19T13:08:59;9.10;99.90
15103;DHT22;7652;53.584;9.998;2023-10-19T13:12:21;9.00;99.90
15103;DHT22;7652;53.584;9.998;2023-10-19T13:15:45;9.00;99.90
15103;DHT22;7652;53.584;9.998;2023-10-19T13:19:09;9.00;99.90
15103;DHT22;7652;53.584;9.998;2023-10-19T13:22:33;9.10;99.90
15103;DHT22;7652;53.584;9.998;2023-10-19T13:25:55;9.20;99.90
15103;DHT22;7652;53.584;9.998;2023-10-19T13:29:31;9.20;99.90
15103;DHT22;7652;53.584;9.998;2023-10-19T13:32:57;9.20;99.90
15103;DHT22;7652;53.584;9.998;2023-10-19T13:36:20;9.20;99.90
15103;DHT22;7652;53.584;9.998;2023-10-19T13:39:42;9.10;99.90
15103;DHT22;7652;53.584;9.998;2023-10-19T13:43:06;9.10;99.90
15103;DHT22;7652;53.584;9.998;2023-10-19T13:46:27;9.10;99.90
15103;DHT22;7652;53.584;9.998;2023-10-19T13:49:49;9.20;99.90
15103;DHT22;7652;53.584;9.998;2023-10-19T13:53:12;9.20;99.90
15103;DHT22;7652;53.584;9.998;2023-10-19T13:56:34;9.20;99.90
15103;DHT22;7652;53.584;9.998;2023-10-19T13:59:55;9.30;99.90
15103;DHT22;7652;53.584;9.998;2023-10-19T14:03:17;9.20;99.90
15103;DHT22;7652;53.584;9.998;2023-10-19T14:06:39;9.30;99.90
15103;DHT22;7652;53.584;9.998;2023-10-19T14:10:02;9.30;99.90
15103;DHT22;7652;53.584;9.998;2023-10-19T14:13:23;9.30;99.90
15103;DHT22;7652;53.584;9.998;2023-10-19T14:16:45;9.40;99.90
15103;DHT22;7652;53.584;9.998;2023-10-19T14:20:07;9.30;99.90
15103;DHT22;7652;53.584;9.998;2023-10-19T14:23:33;9.30;99.90
15103;DHT22;7652;53.584;9.998;2023-10-19T14:26:57;9.40;99.90
15103;DHT22;7652;53.584;9.998;2023-10-19T14:30:23;9.30;99.90
15103;DHT22;7652;53.584;9.998;2023-10-19T14:33:44;9.40;99.90
15103;DHT22;7652;53.584;9.998;2023-10-19T14:37:07;9.40;99.90
15103;DHT22;7652;53.584;9.998;2023-10-19T14:40:28;9.40;99.90
15103;DHT22;7652;53.584;9.998;2023-10-19T14:43:51;9.30;99.90
15103;DHT22;7652;53.584;9.998;2023-10-19T14:47:13;9.30;99.90
15103;DHT22;7652;53.584;9.998;2023-10-19T14:50:34;9.30;99.90
15103;DHT22;7652;53.584;9.998;2023-10-19T14:53:56;9.40;99.90
15103;DHT22;7652;53.584;9.998;2023-10-19T14:57:18;9.40;99.90
15103;DHT22;7652;53.584;9.998;2023-10-19T15:00:41;9.40;99.90
15103;DHT22;7652;53.584;9.998;2023-10-19T15:04:05;9.40;99.90
15103;DHT22;7652;53.584;9.998;2023-10-19T15:07:26;9.40;99.90
15103;DHT22;7652;53.584;9.998;2023-10-19T15:10:48;9.30;99.90
15103;DHT22;7652;53.584;9.998;2023-10-19T15:14:09;9.40;99.90
15103;DHT22;7652;53.584;9.998;2023-10-19T15:17:33;9.40;99.90
15103;DHT22;7652;53.584;9.998;2023-10-19T15:20:55;9.30;99.90
15103;DHT22;7652;53.584;9.998;2023-10-19T15:24:16;9.30;99.90
15103;DHT22;7652;53.584;9.998;2023-10-19T15:27:39;9.30;99.90
15103;DHT22;7652;53.584;9.998;2023-10-19T15:31:01;9.30;99.90
15103;DHT22;7652;53.584;9.998;2023-10-19T15:34:24;9.30;99.90
15103;DHT22;7652;53.584;9.998;2023-10-19T15:37:46;9.30;99.90
15103;DHT22;7652;53.584;9.998;2023-10-19T15:41:09;9.20;99.90
15103;DHT22;7652;53.584;9.998;2023-10-19T15:44:32;9.10;99.90
15103;DHT22;7652;53.584;9.998;2023-10-19T15:47:54;9.00;99.90
15103;DHT22;7652;53.584;9.998;2023-10-19T15:51:18;9.10;99.90
15103;DHT22;7652;53.584;9.998;2023-10-19T15:54:39;9.00;99.90
15103;DHT22;7652;53.584;9.998;2023-10-19T15:58:01;9.10;99.90
15103;DHT22;7652;53.584;9.998;2023-10-19T16:01:23;9.00;99.90
15103;DHT22;7652;53.584;9.998;2023-10-19T16:04:45;9.00;99.90
15103;DHT22;7652;53.584;9.998;2023-10-19T16:08:07;9.10;99.90
15103;DHT22;7652;53.584;9.998;2023-10-19T16:11:29;9.00;99.90
15103;DHT22;7652;53.584;9.998;2023-10-19T16:14:51;9.00;99.90
15103;DHT22;7652;53.584;9.998;2023-10-19T16:18:12;8.90;99.90
15103;DHT22;7652;53.584;9.998;2023-10-19T16:21:34;8.90;99.90
15103;DHT22;7652;53.584;9.998;2023-10-19T16:24:58;8.90;99.90
15103;DHT22;7652;53.584;9.998;2023-10-19T16:28:20;9.00;99.90
15103;DHT22;7652;53.584;9.998;2023-10-19T16:31:42;9.00;99.90
15103;DHT22;7652;53.584;9.998;2023-10-19T16:35:04;8.90;99.90
15103;DHT22;7652;53.584;9.998;2023-10-19T16:38:26;9.00;99.90
15103;DHT22;7652;53.584;9.998;2023-10-19T16:41:50;9.00;99.90
15103;DHT22;7652;53.584;9.998;2023-10-19T16:45:13;8.90;99.90
15103;DHT22;7652;53.584;9.998;2023-10-19T16:48:34;9.00;99.90
15103;DHT22;7652;53.584;9.998;2023-10-19T16:51:57;9.00;99.90
15103;DHT22;7652;53.584;9.998;2023-10-19T16:55:19;8.80;99.90
15103;DHT22;7652;53.584;9.998;2023-10-19T16:58:42;8.70;99.90
15103;DHT22;7652;53.584;9.998;2023-10-19T17:02:03;8.70;99.90
15103;DHT22;7652;53.584;9.998;2023-10-19T17:05:25;8.50;99.90
15103;DHT22;7652;53.584;9.998;2023-10-19T17:08:47;8.60;99.90
15103;DHT22;7652;53.584;9.998;2023-10-19T17:12:09;8.40;99.90
15103;DHT22;7652;53.584;9.998;2023-10-19T17:15:32;8.60;99.90
15103;DHT22;7652;53.584;9.998;2023-10-19T17:18:53;8.60;99.90
15103;DHT22;7652;53.584;9.998;2023-10-19T17:22:15;8.50;99.90
15103;DHT22;7652;53.584;9.998;2023-10-19T17:25:36;8.50;99.90
15103;DHT22;7652;53.584;9.998;2023-10-19T17:28:57;8.50;99.90
15103;DHT22;7652;53.584;9.998;2023-10-19T17:32:20;8.60;99.90
15103;DHT22;7652;53.584;9.998;2023-10-19T17:35:41;8.60;99.90
15103;DHT22;7652;53.584;9.998;2023-10-19T17:39:03;8.60;99.90
15103;DHT22;7652;53.584;9.998;2023-10-19T17:42:25;8.60;99.90
15103;DHT22;7652;53.584;9.998;2023-10-19T17:45:48;8.60;99.90
15103;DHT22;7652;53.584;9.998;2023-10-19T17:49:11;8.60;99.90
15103;DHT22;7652;53.584;9.998;2023-10-19T17:52:33;8.60;99.90
15103;DHT22;7652;53.584;9.998;2023-10-19T17:55:54;8.60;99.90
15103;DHT22;7652;53.584;9.998;2023-10-19T17:59:17;8.60;99.90
15103;DHT22;7652;53.584;9.998;2023-10-19T18:02:38;8.60;99.90
15103;DHT22;7652;53.584;9.998;2023-10-19T18:06:02;8.60;99.90
15103;DHT22;7652;53.584;9.998;2023-10-19T18:09:27;8.70;99.90
15103;DHT22;7652;53.584;9.998;2023-10-19T18:12:48;8.70;99.90
15103;DHT22;7652;53.584;9.998;2023-10-19T18:16:10;8.70;99.90
15103;DHT22;7652;53.584;9.998;2023-10-19T18:19:32;8.70;99.90
15103;DHT22;7652;53.584;9.998;2023-10-19T18:22:55;8.60;99.90
15103;DHT22;7652;53.584;9.998;2023-10-19T18:26:17;8.50;99.90
15103;DHT22;7652;53.584;9.998;2023-10-19T18:29:40;8.60;99.90
15103;DHT22;7652;53.584;9.998;2023-10-19T18:33:02;8.70;99.90
15103;DHT22;7652;53.584;9.998;2023-10-19T18:36:25;8.60;99.90
15103;DHT22;7652;53.584;9.998;2023-10-19T18:39:51;8.60;99.90
15103;DHT22;7652;53.584;9.998;2023-10-19T18:43:12;8.60;99.90
15103;DHT22;7652;53.584;9.998;2023-10-19T18:46:34;8.50;99.90
15103;DHT22;7652;53.584;9.998;2023-10-19T18:49:55;8.50;99.90
15103;DHT22;7652;53.584;9.998;2023-10-19T18:53:17;8.60;99.90
15103;DHT22;7652;53.584;9.998;2023-10-19T18:56:40;8.50;99.90
15103;DHT22;7652;53.584;9.998;2023-10-19T19:00:01;8.50;99.90
15103;DHT22;7652;53.584;9.998;2023-10-19T19:03:23;8.70;99.90
15103;DHT22;7652;53.584;9.998;2023-10-19T19:06:46;8.70;99.90
15103;DHT22;7652;53.584;9.998;2023-10-19T19:10:08;8.60;99.90
15103;DHT22;7652;53.584;9.998;2023-10-19T19:13:32;8.50;99.90
15103;DHT22;7652;53.584;9.998;2023-10-19T19:16:54;8.50;99.90
15103;DHT22;7652;53.584;9.998;2023-10-19T19:20:17;8.50;99.90
15103;DHT22;7652;53.584;9.998;2023-10-19T19:23:42;8.60;99.90
15103;DHT22;7652;53.584;9.998;2023-10-19T19:27:04;8.50;99.90
15103;DHT22;7652;53.584;9.998;2023-10-19T19:30:27;8.60;99.90
15103;DHT22;7652;53.584;9.998;2023-10-19T19:33:49;8.60;99.90
15103;DHT22;7652;53.584;9.998;2023-10-19T19:37:10;8.60;99.90
15103;DHT22;7652;53.584;9.998;2023-10-19T19:40:33;8.70;99.90
15103;DHT22;7652;53.584;9.998;2023-10-19T19:43:55;8.80;99.90
15103;DHT22;7652;53.584;9.998;2023-10-19T19:47:17;8.70;99.90
15103;DHT22;7652;53.584;9.998;2023-10-19T19:50:40;8.70;99.90
15103;DHT22;7652;53.584;9.998;2023-10-19T19:54:02;8.70;99.90
15103;DHT22;7652;53.584;9.998;2023-10-19T19:57:24;8.60;99.90
15103;DHT22;7652;53.584;9.998;2023-10-19T20:00:46;8.60;99.90
15103;DHT22;7652;53.584;9.998;2023-10-19T20:04:09;8.50;99.90
15103;DHT22;7652;53.584;9.998;2023-10-19T20:07:31;8.40;99.90
15103;DHT22;7652;53.584;9.998;2023-10-19T20:10:53;8.30;99.90
15103;DHT22;7652;53.584;9.998;2023-10-19T20:14:16;8.40;99.90
15103;DHT22;7652;53.584;9.998;2023-10-19T20:17:38;8.40;99.90
15103;DHT22;7652;53.584;9.998;2023-10-19T20:21:01;8.50;99.90
15103;DHT22;7652;53.584;9.998;2023-10-19T20:24:23;8.50;99.90
15103;DHT22;7652;53.584;9.998;2023-10-19T20:27:46;8.40;99.90
15103;DHT22;7652;53.584;9.998;2023-10-19T20:31:08;8.50;99.90
15103;DHT22;7652;53.584;9.998;2023-10-19T20:34:30;8.40;99.90
15103;DHT22;7652;53.584;9.998;2023-10-19T20:37:54;8.50;99.90
15103;DHT22;7652;53.584;9.998;2023-10-19T20:41:15;8.40;99.90
15103;DHT22;7652;53.584;9.998;2023-10-19T20:44:37;8.40;99.90
15103;DHT22;7652;53.584;9.998;2023-10-19T20:48:01;8.50;99.90
15103;DHT22;7652;53.584;9.998;2023-10-19T20:51:22;8.50;99.90
15103;DHT22;7652;53.584;9.998;2023-10-19T20:54:45;8.50;99.90
15103;DHT22;7652;53.584;9.998;2023-10-19T20:58:07;8.50;99.90
15103;DHT22;7652;53.584;9.998;2023-10-19T21:01:31;8.50;99.90
15103;DHT22;7652;53.584;9.998;2023-10-19T21:04:53;8.50;99.90
15103;DHT22;7652;53.584;9.998;2023-10-19T21:08:14;8.50;99.90
15103;DHT22;7652;53.584;9.998;2023-10-19T21:11:37;8.40;99.90
15103;DHT22;7652;53.584;9.998;2023-10-19T21:14:59;8.40;99.90
15103;DHT22;7652;53.584;9.998;2023-10-19T21:18:20;8.50;99.90
15103;DHT22;7652;53.584;9.998;2023-10-19T21:21:42;8.40;99.90
15103;DHT22;7652;53.584;9.998;2023-10-19T21:25:04;8.40;99.90
15103;DHT22;7652;53.584;9.998;2023-10-19T21:28:27;8.40;99.90
15103;DHT22;7652;53.584;9.998;2023-10-19T21:31:49;8.50;99.90
15103;DHT22;7652;53.584;9.998;2023-10-19T21:35:11;8.50;99.90
15103;DHT22;7652;53.584;9.998;2023-10-19T21:38:32;8.40;99.90
15103;DHT22;7652;53.584;9.998;2023-10-19T21:41:54;8.50;99.90
15103;DHT22;7652;53.584;9.998;2023-10-19T21:45:17;8.40;99.90
15103;DHT22;7652;53.584;9.998;2023-10-19T21:48:39;8.30;99.90
15103;DHT22;7652;53.584;9.998;2023-10-19T21:52:00;8.40;99.90
15103;DHT22;7652;53.584;9.998;2023-10-19T21:55:22;8.40;99.90
15103;DHT22;7652;53.584;9.998;2023-10-19T21:58:43;8.40;99.90
15103;DHT22;7652;53.584;9.998;2023-10-19T22:02:06;8.30;99.90
15103;DHT22;7652;53.584;9.998;2023-10-19T22:05:28;8.40;99.90
15103;DHT22;7652;53.584;9.998;2023-10-19T22:08:50;8.30;99.90